createdAt,value
2019-03-24T00:01:47.742Z,6.80
2019-03-24T00:04:26.669Z,6.80
2019-03-24T00:06:56.649Z,6.80
2019-03-24T00:09:35.531Z,6.70
2019-03-24T00:12:09.578Z,6.70
2019-03-24T00:14:39.470Z,6.70
2019-03-24T00:17:09.433Z,6.60
2019-03-24T00:19:42.240Z,6.60
2019-03-24T00:22:15.082Z,6.50
2019-03-24T00:24:44.839Z,6.50
2019-03-24T00:27:28.728Z,6.50
2019-03-24T00:29:58.614Z,6.40
2019-03-24T00:32:28.491Z,6.40
2019-03-24T00:34:58.490Z,6.40
2019-03-24T00:37:28.330Z,6.40
2019-03-24T00:39:58.286Z,6.40
2019-03-24T00:42:28.216Z,6.40
2019-03-24T00:44:58.100Z,6.30
2019-03-24T00:47:28.003Z,6.30
2019-03-24T00:49:57.994Z,6.30
2019-03-24T00:52:27.848Z,6.30
2019-03-24T00:54:57.846Z,6.30
2019-03-24T00:57:27.708Z,6.30
2019-03-24T00:59:57.616Z,6.30
2019-03-24T01:02:27.526Z,6.30
2019-03-24T01:05:02.748Z,6.30
2019-03-24T01:07:32.745Z,6.30
2019-03-24T01:10:02.761Z,6.30
2019-03-24T01:12:37.815Z,6.30
2019-03-24T01:15:08.735Z,6.30
2019-03-24T01:18:02.573Z,6.30
2019-03-24T01:20:50.632Z,6.30
2019-03-24T01:23:20.561Z,6.30
2019-03-24T01:25:58.231Z,6.30
2019-03-24T01:28:40.077Z,6.40
2019-03-24T01:31:09.993Z,6.30
2019-03-24T01:33:39.805Z,6.30
2019-03-24T01:36:09.761Z,6.30
2019-03-24T01:38:39.757Z,6.30
2019-03-24T01:41:11.609Z,6.30
2019-03-24T01:43:41.535Z,6.30
2019-03-24T01:46:17.229Z,6.30
2019-03-24T01:48:47.097Z,6.20
2019-03-24T01:51:31.227Z,6.20
2019-03-24T01:54:09.250Z,6.20
2019-03-24T01:56:39.061Z,6.20
2019-03-24T01:59:08.907Z,6.20
2019-03-24T02:01:38.809Z,6.20
2019-03-24T02:04:08.838Z,6.20
2019-03-24T02:06:38.765Z,6.20
2019-03-24T02:09:14.694Z,6.20
2019-03-24T02:11:52.863Z,6.10
2019-03-24T02:14:22.890Z,6.10
2019-03-24T02:17:00.884Z,6.10
2019-03-24T02:19:30.732Z,6.10
2019-03-24T02:22:00.685Z,6.00
2019-03-24T02:24:30.644Z,6.00
2019-03-24T02:27:00.890Z,6.00
2019-03-24T02:29:30.792Z,6.00
2019-03-24T02:32:00.769Z,5.90
2019-03-24T02:34:39.732Z,5.90
2019-03-24T02:37:09.633Z,5.90
2019-03-24T02:39:39.525Z,5.90
2019-03-24T02:42:11.207Z,5.90
2019-03-24T02:44:44.253Z,5.80
2019-03-24T02:47:14.175Z,5.80
2019-03-24T02:49:44.129Z,5.80
2019-03-24T02:52:20.183Z,5.70
2019-03-24T02:54:51.709Z,5.70
2019-03-24T02:57:33.526Z,5.70
2019-03-24T03:00:03.422Z,5.60
2019-03-24T03:02:33.317Z,5.60
2019-03-24T03:05:03.314Z,5.60
2019-03-24T03:07:33.131Z,5.60
2019-03-24T03:10:03.043Z,5.50
2019-03-24T03:12:33.067Z,5.50
2019-03-24T03:15:07.171Z,5.50
2019-03-24T03:17:38.158Z,5.50
2019-03-24T03:20:22.465Z,5.40
2019-03-24T03:22:52.290Z,5.40
2019-03-24T03:25:22.218Z,5.40
2019-03-24T03:27:52.160Z,5.40
2019-03-24T03:30:22.018Z,5.40
2019-03-24T03:32:51.978Z,5.30
2019-03-24T03:35:21.944Z,5.30
2019-03-24T03:37:51.822Z,5.30
2019-03-24T03:40:22.213Z,5.30
2019-03-24T03:42:58.331Z,5.20
2019-03-24T03:45:43.309Z,5.20
2019-03-24T03:48:13.166Z,5.10
2019-03-24T03:50:48.820Z,5.10
2019-03-24T03:53:18.799Z,5.00
2019-03-24T03:55:48.633Z,5.00
2019-03-24T03:58:18.565Z,4.90
2019-03-24T04:00:48.863Z,4.90
2019-03-24T04:03:18.873Z,4.80
2019-03-24T04:05:48.706Z,4.80
2019-03-24T04:08:18.830Z,4.80
2019-03-24T04:11:09.100Z,4.70
2019-03-24T04:13:38.983Z,4.60
2019-03-24T04:16:08.895Z,4.60
2019-03-24T04:18:38.803Z,4.50
2019-03-24T04:21:08.763Z,4.50
2019-03-24T04:23:38.600Z,4.40
2019-03-24T04:26:14.289Z,4.40
2019-03-24T04:28:44.269Z,4.40
2019-03-24T04:31:14.119Z,4.30
2019-03-24T04:33:44.011Z,4.30
2019-03-24T04:36:14.951Z,4.30
2019-03-24T04:38:45.892Z,4.20
2019-03-24T04:41:15.835Z,4.20
2019-03-24T04:43:45.785Z,4.20
2019-03-24T04:46:15.642Z,4.10
2019-03-24T04:48:45.612Z,4.10
2019-03-24T04:51:15.540Z,4.10
2019-03-24T04:53:45.410Z,4.00
2019-03-24T04:56:15.326Z,4.00
2019-03-24T04:58:45.284Z,4.00
2019-03-24T05:01:15.196Z,4.00
2019-03-24T05:03:45.049Z,4.00
2019-03-24T05:06:15.938Z,3.90
2019-03-24T05:08:46.594Z,3.90
2019-03-24T05:11:16.471Z,3.90
2019-03-24T05:13:46.396Z,3.90
2019-03-24T05:16:16.328Z,3.90
2019-03-24T05:18:46.252Z,3.90
2019-03-24T05:21:16.123Z,3.90
2019-03-24T05:23:46.195Z,3.80
2019-03-24T05:26:16.411Z,3.90
2019-03-24T05:28:46.262Z,3.90
2019-03-24T05:31:16.260Z,3.80
2019-03-24T05:33:46.192Z,3.80
2019-03-24T05:36:16.008Z,3.90
2019-03-24T05:38:45.913Z,3.90
2019-03-24T05:41:16.154Z,3.90
2019-03-24T05:43:48.272Z,3.80
2019-03-24T05:46:18.115Z,3.80
2019-03-24T05:48:48.112Z,3.80
2019-03-24T05:51:17.952Z,3.80
2019-03-24T05:53:48.052Z,3.80
2019-03-24T05:56:17.857Z,3.80
2019-03-24T05:58:47.854Z,3.80
2019-03-24T06:01:17.651Z,3.80
2019-03-24T06:03:47.539Z,3.90
2019-03-24T06:06:17.545Z,3.90
2019-03-24T06:08:48.626Z,3.90
2019-03-24T06:11:18.499Z,3.90
2019-03-24T06:13:48.507Z,4.00
2019-03-24T06:16:18.343Z,4.00
2019-03-24T06:18:48.298Z,4.00
2019-03-24T06:21:19.077Z,4.00
2019-03-24T06:23:49.001Z,4.10
2019-03-24T06:26:19.271Z,4.10
2019-03-24T06:28:49.611Z,4.10
2019-03-24T06:31:20.715Z,4.20
2019-03-24T06:33:50.640Z,4.20
2019-03-24T06:36:20.589Z,4.20
2019-03-24T06:38:50.447Z,4.20
2019-03-24T06:41:20.367Z,4.30
2019-03-24T06:43:51.175Z,4.30
2019-03-24T06:46:21.047Z,4.20
2019-03-24T06:48:51.741Z,4.30
2019-03-24T06:51:21.745Z,4.30
2019-03-24T06:53:51.629Z,4.30
2019-03-24T06:56:21.502Z,4.30
2019-03-24T06:58:51.475Z,4.40
2019-03-24T07:01:21.356Z,4.40
2019-03-24T07:03:51.249Z,4.40
2019-03-24T07:06:26.971Z,4.40
2019-03-24T07:09:07.332Z,4.40
2019-03-24T07:11:41.544Z,4.50
2019-03-24T07:14:11.386Z,4.50
2019-03-24T07:16:41.314Z,4.50
2019-03-24T07:19:11.822Z,4.60
2019-03-24T07:21:41.610Z,4.70
2019-03-24T07:24:11.482Z,4.70
2019-03-24T07:27:05.205Z,4.70
2019-03-24T07:29:35.128Z,4.80
2019-03-24T07:32:07.111Z,4.90
2019-03-24T07:34:37.049Z,5.00
2019-03-24T07:37:08.112Z,5.00
2019-03-24T07:39:39.303Z,5.10
2019-03-24T07:42:09.175Z,5.20
2019-03-24T07:44:41.107Z,5.40
2019-03-24T07:47:14.197Z,5.50
2019-03-24T07:49:46.282Z,5.50
2019-03-24T07:52:16.194Z,5.60
2019-03-24T07:54:47.137Z,5.70
2019-03-24T07:57:30.762Z,5.90
2019-03-24T08:00:30.442Z,6.00
2019-03-24T08:03:00.571Z,6.10
2019-03-24T08:05:30.407Z,6.30
2019-03-24T08:08:06.012Z,6.30
2019-03-24T08:10:40.896Z,6.40
2019-03-24T08:13:10.795Z,6.60
2019-03-24T08:15:40.794Z,6.80
2019-03-24T08:18:29.470Z,6.80
2019-03-24T08:20:52.517Z,6.80
2019-03-24T08:23:31.375Z,7.00
2019-03-24T08:26:04.179Z,7.10
2019-03-24T08:28:34.263Z,7.20
2019-03-24T08:31:04.892Z,7.30
2019-03-24T08:33:36.877Z,7.30
2019-03-24T08:36:06.722Z,7.30
2019-03-24T08:38:36.603Z,7.40
2019-03-24T08:41:08.593Z,7.50
2019-03-24T08:43:38.531Z,7.60
2019-03-24T08:46:08.419Z,7.60
2019-03-24T08:48:41.114Z,7.60
2019-03-24T08:51:17.750Z,7.70
2019-03-24T08:53:47.627Z,7.60
2019-03-24T08:56:18.684Z,7.70
2019-03-24T08:58:48.616Z,7.80
2019-03-24T09:01:18.603Z,7.80
2019-03-24T09:03:48.479Z,7.80
2019-03-24T09:06:19.217Z,7.90
2019-03-24T09:08:49.245Z,8.10
2019-03-24T09:11:30.659Z,8.20
2019-03-24T09:13:51.805Z,8.30
2019-03-24T09:16:22.179Z,8.30
2019-03-24T09:18:53.102Z,8.40
2019-03-24T09:21:25.108Z,8.50
2019-03-24T09:23:55.231Z,8.50
2019-03-24T09:26:30.849Z,8.50
2019-03-24T09:29:02.561Z,8.50
2019-03-24T09:31:32.281Z,8.70
2019-03-24T09:34:04.759Z,8.80
2019-03-24T09:36:34.713Z,8.90
2019-03-24T09:39:36.094Z,9.00
2019-03-24T09:42:08.798Z,8.90
2019-03-24T09:44:40.845Z,9.00
2019-03-24T09:47:11.099Z,9.00
2019-03-24T09:49:41.870Z,9.10
2019-03-24T09:52:11.770Z,9.30
2019-03-24T09:54:41.724Z,9.50
2019-03-24T09:57:11.608Z,9.60
2019-03-24T09:59:41.556Z,9.70
2019-03-24T10:02:11.493Z,9.80
2019-03-24T10:04:41.410Z,9.70
2019-03-24T10:07:11.246Z,9.70
2019-03-24T10:09:41.162Z,9.80
2019-03-24T10:12:18.893Z,9.90
2019-03-24T10:14:48.750Z,10.00
2019-03-24T10:17:19.183Z,10.10
2019-03-24T10:19:50.329Z,10.20
2019-03-24T10:22:20.138Z,10.30
2019-03-24T10:24:57.529Z,10.30
2019-03-24T10:27:27.359Z,10.10
2019-03-24T10:29:58.135Z,10.10
2019-03-24T10:32:27.908Z,10.10
2019-03-24T10:35:00.895Z,10.20
2019-03-24T10:37:30.775Z,10.00
2019-03-24T10:40:01.909Z,10.00
2019-03-24T10:42:31.894Z,10.20
2019-03-24T10:45:01.719Z,10.20
2019-03-24T10:47:31.613Z,10.30
2019-03-24T10:50:01.595Z,10.40
2019-03-24T10:52:31.427Z,10.50
2019-03-24T10:55:23.553Z,10.30
2019-03-24T10:58:06.636Z,10.20
2019-03-24T11:00:44.329Z,10.20
2019-03-24T11:03:14.128Z,10.10
2019-03-24T11:05:44.021Z,10.20
2019-03-24T11:08:14.000Z,10.20
2019-03-24T11:10:46.861Z,10.10
2019-03-24T11:13:24.817Z,10.10
2019-03-24T11:15:54.791Z,10.10
2019-03-24T11:18:24.680Z,10.10
2019-03-24T11:20:56.639Z,9.90
2019-03-24T11:23:26.581Z,9.90
2019-03-24T11:25:56.476Z,9.80
2019-03-24T11:28:26.406Z,9.80
2019-03-24T11:30:58.427Z,9.80
2019-03-24T11:33:29.645Z,9.80
2019-03-24T11:36:04.759Z,9.90
2019-03-24T11:38:34.731Z,10.00
2019-03-24T11:41:04.561Z,10.20
2019-03-24T11:43:34.489Z,10.20
2019-03-24T11:46:04.596Z,10.20
2019-03-24T11:48:38.749Z,10.20
2019-03-24T11:51:10.551Z,10.30
2019-03-24T11:53:42.476Z,10.40
2019-03-24T11:56:12.264Z,10.30
2019-03-24T11:58:42.349Z,10.20
2019-03-24T12:01:12.564Z,10.20
2019-03-24T12:03:43.322Z,10.10
2019-03-24T12:06:18.557Z,10.10
2019-03-24T12:08:48.419Z,10.10
2019-03-24T12:11:18.293Z,10.20
2019-03-24T12:13:48.293Z,10.30
2019-03-24T12:16:18.128Z,10.20
2019-03-24T12:18:48.038Z,10.30
2019-03-24T12:21:18.027Z,10.50
2019-03-24T12:23:47.894Z,10.50
2019-03-24T12:26:17.872Z,10.40
2019-03-24T12:28:49.032Z,10.30
2019-03-24T12:31:18.939Z,10.30
2019-03-24T12:33:48.791Z,10.30
2019-03-24T12:36:20.860Z,10.50
2019-03-24T12:38:58.826Z,10.50
2019-03-24T12:41:28.904Z,10.60
2019-03-24T12:43:59.908Z,10.50
2019-03-24T12:46:29.930Z,10.50
2019-03-24T12:49:01.829Z,10.60
2019-03-24T12:51:31.694Z,10.60
2019-03-24T12:54:07.407Z,10.70
2019-03-24T12:56:37.304Z,10.60
2019-03-24T12:59:08.091Z,10.70
2019-03-24T13:01:42.099Z,10.70
2019-03-24T13:04:11.959Z,10.70
2019-03-24T13:06:41.915Z,10.80
2019-03-24T13:09:11.831Z,10.80
2019-03-24T13:11:41.669Z,10.80
2019-03-24T13:14:23.571Z,10.70
2019-03-24T13:16:54.855Z,10.80
2019-03-24T13:19:30.679Z,10.70
2019-03-24T13:22:00.684Z,10.80
2019-03-24T13:24:32.533Z,10.80
2019-03-24T13:27:05.545Z,10.80
2019-03-24T13:29:36.532Z,10.70
2019-03-24T13:32:06.386Z,10.80
2019-03-24T13:34:36.301Z,11.00
2019-03-24T13:37:06.290Z,11.10
2019-03-24T13:39:39.425Z,11.00
2019-03-24T13:42:09.328Z,10.90
2019-03-24T13:44:39.347Z,10.80
2019-03-24T13:47:09.165Z,10.80
2019-03-24T13:49:39.122Z,10.80
2019-03-24T13:52:09.041Z,10.90
2019-03-24T13:54:38.915Z,10.80
2019-03-24T13:57:08.886Z,10.90
2019-03-24T13:59:38.819Z,11.00
2019-03-24T14:02:10.734Z,11.10
2019-03-24T14:04:40.637Z,11.00
2019-03-24T14:07:10.627Z,11.10
2019-03-24T14:09:40.444Z,11.00
2019-03-24T14:12:10.420Z,10.90
2019-03-24T14:14:40.394Z,10.90
2019-03-24T14:17:16.382Z,10.90
2019-03-24T14:19:46.303Z,10.90
2019-03-24T14:22:16.246Z,11.10
2019-03-24T14:24:46.095Z,11.10
2019-03-24T14:27:16.016Z,11.20
2019-03-24T14:30:03.302Z,11.20
2019-03-24T14:32:50.362Z,11.20
2019-03-24T14:35:26.346Z,11.10
2019-03-24T14:37:57.990Z,11.10
2019-03-24T14:40:27.780Z,11.00
2019-03-24T14:43:05.608Z,11.00
2019-03-24T14:45:35.425Z,11.10
2019-03-24T14:48:16.063Z,11.20
2019-03-24T14:50:54.801Z,11.30
2019-03-24T14:53:40.459Z,11.40
2019-03-24T14:56:36.188Z,11.40
2019-03-24T14:59:08.125Z,11.40
2019-03-24T15:01:37.958Z,11.30
2019-03-24T15:04:10.792Z,11.30
2019-03-24T15:06:40.820Z,11.30
2019-03-24T15:09:17.141Z,11.30
2019-03-24T15:11:49.242Z,11.40
2019-03-24T15:14:19.116Z,11.50
2019-03-24T15:16:49.021Z,11.40
2019-03-24T15:19:18.911Z,11.50
2019-03-24T15:21:48.777Z,11.40
2019-03-24T15:24:18.693Z,11.40
2019-03-24T15:26:48.776Z,11.20
2019-03-24T15:29:20.601Z,11.20
2019-03-24T15:31:50.472Z,11.30
2019-03-24T15:34:20.477Z,11.30
2019-03-24T15:36:50.875Z,11.30
2019-03-24T15:39:30.990Z,11.20
2019-03-24T15:42:01.248Z,11.30
2019-03-24T15:44:31.145Z,11.30
2019-03-24T15:47:01.113Z,11.30
2019-03-24T15:49:31.173Z,11.30
2019-03-24T15:52:02.225Z,11.30
2019-03-24T15:54:33.333Z,11.30
2019-03-24T15:57:03.221Z,11.30
2019-03-24T15:59:39.248Z,11.30
2019-03-24T16:02:09.206Z,11.30
2019-03-24T16:04:39.068Z,11.30
2019-03-24T16:07:09.097Z,11.20
2019-03-24T16:09:45.087Z,11.20
2019-03-24T16:12:16.193Z,11.20
2019-03-24T16:14:48.349Z,11.20
2019-03-24T16:17:22.292Z,11.20
2019-03-24T16:19:59.152Z,11.20
2019-03-24T16:22:29.001Z,11.20
2019-03-24T16:24:58.889Z,11.20
2019-03-24T16:27:35.762Z,11.20
2019-03-24T16:30:07.383Z,11.20
2019-03-24T16:32:38.388Z,11.20
2019-03-24T16:35:10.453Z,11.20
2019-03-24T16:37:40.409Z,11.20
2019-03-24T16:40:11.618Z,11.10
2019-03-24T16:42:41.438Z,11.10
2019-03-24T16:45:11.606Z,11.00
2019-03-24T16:48:02.154Z,11.00
2019-03-24T16:50:32.103Z,11.00
2019-03-24T16:53:01.942Z,10.90
2019-03-24T16:55:42.552Z,10.90
2019-03-24T16:58:12.457Z,10.80
2019-03-24T17:00:42.429Z,10.80
2019-03-24T17:03:12.322Z,10.70
2019-03-24T17:05:42.153Z,10.70
2019-03-24T17:08:12.167Z,10.70
2019-03-24T17:10:42.067Z,10.60
2019-03-24T17:13:11.932Z,10.50
2019-03-24T17:15:41.940Z,10.40
2019-03-24T17:18:13.125Z,10.40
2019-03-24T17:20:44.967Z,10.40
2019-03-24T17:23:14.882Z,10.30
2019-03-24T17:25:44.856Z,10.20
2019-03-24T17:28:14.692Z,10.20
2019-03-24T17:30:50.390Z,10.10
2019-03-24T17:33:20.349Z,10.10
2019-03-24T17:35:50.305Z,10.00
2019-03-24T17:38:20.110Z,9.90
2019-03-24T17:40:50.059Z,9.90
2019-03-24T17:43:19.782Z,9.90
2019-03-24T17:45:50.858Z,9.80
2019-03-24T17:48:28.912Z,9.70
2019-03-24T17:50:59.971Z,9.60
2019-03-24T17:53:29.863Z,9.50
2019-03-24T17:56:03.939Z,9.40
2019-03-24T17:58:33.863Z,9.30
2019-03-24T18:01:03.779Z,9.30
2019-03-24T18:03:34.149Z,9.20
2019-03-24T18:06:05.194Z,9.10
2019-03-24T18:08:35.114Z,9.00
2019-03-24T18:11:14.576Z,8.90
2019-03-24T18:13:51.266Z,8.90
2019-03-24T18:16:21.280Z,8.80
2019-03-24T18:19:00.115Z,8.70
2019-03-24T18:21:32.147Z,8.60
2019-03-24T18:24:02.011Z,8.60
2019-03-24T18:26:32.301Z,8.50
2019-03-24T18:29:02.302Z,8.50
2019-03-24T18:31:32.236Z,8.40
2019-03-24T18:34:02.097Z,8.40
2019-03-24T18:36:32.108Z,8.40
2019-03-24T18:39:02.032Z,8.30
2019-03-24T18:41:38.040Z,8.20
2019-03-24T18:44:07.970Z,8.20
2019-03-24T18:46:39.987Z,8.10
2019-03-24T18:49:09.870Z,8.10
2019-03-24T18:51:39.780Z,8.00
2019-03-24T18:54:09.605Z,8.00
2019-03-24T18:56:40.561Z,7.90
2019-03-24T18:59:10.647Z,7.90
2019-03-24T19:01:41.645Z,7.80
2019-03-24T19:04:20.536Z,7.80
2019-03-24T19:10:07.757Z,7.70
2019-03-24T19:12:41.450Z,7.70
2019-03-24T19:15:13.233Z,7.60
2019-03-24T19:17:43.216Z,7.60
2019-03-24T19:20:13.466Z,7.60
2019-03-24T19:22:43.410Z,7.50
2019-03-24T19:25:15.614Z,7.50
2019-03-24T19:27:45.744Z,7.50
2019-03-24T19:30:16.821Z,7.40
2019-03-24T19:32:46.926Z,7.40
2019-03-24T19:35:18.712Z,7.40
2019-03-24T19:37:49.518Z,7.30
2019-03-24T19:40:29.440Z,7.30
2019-03-24T19:43:04.827Z,7.30
2019-03-24T19:45:34.587Z,7.20
2019-03-24T19:48:05.891Z,7.20
2019-03-24T19:50:37.762Z,7.20
2019-03-24T19:53:13.585Z,7.10
2019-03-24T19:55:43.635Z,7.10
2019-03-24T19:58:16.651Z,7.10
2019-03-24T20:00:46.595Z,7.10
2019-03-24T20:03:16.451Z,7.00
2019-03-24T20:05:46.459Z,7.00
2019-03-24T20:08:21.745Z,6.90
2019-03-24T20:10:51.597Z,6.80
2019-03-24T20:13:21.439Z,6.80
2019-03-24T20:15:51.425Z,6.80
2019-03-24T20:18:21.277Z,6.80
2019-03-24T20:20:52.233Z,6.80
2019-03-24T20:23:22.437Z,6.70
2019-03-24T20:25:52.243Z,6.70
2019-03-24T20:28:22.189Z,6.70
2019-03-24T20:30:52.245Z,6.60
2019-03-24T20:33:28.136Z,6.60
2019-03-24T20:36:05.983Z,6.60
2019-03-24T20:38:36.009Z,6.50
2019-03-24T20:41:16.596Z,6.50
2019-03-24T20:43:52.386Z,6.60
2019-03-24T20:46:22.349Z,6.50
2019-03-24T20:48:55.642Z,6.50
2019-03-24T20:51:30.724Z,6.50
2019-03-24T20:54:01.485Z,6.50
2019-03-24T20:56:31.772Z,6.40
2019-03-24T20:59:04.471Z,6.40
2019-03-24T21:01:44.390Z,6.40
2019-03-24T21:04:14.353Z,6.30
2019-03-24T21:06:48.317Z,6.30
2019-03-24T21:09:19.026Z,6.30
2019-03-24T21:11:48.998Z,6.20
2019-03-24T21:14:18.725Z,6.20
2019-03-24T21:16:50.766Z,6.20
2019-03-24T21:19:26.515Z,6.20
2019-03-24T21:21:57.659Z,6.10
2019-03-24T21:24:27.506Z,6.10
2019-03-24T21:26:57.400Z,6.10
2019-03-24T21:29:34.350Z,6.10
2019-03-24T21:32:04.248Z,6.10
2019-03-24T21:34:34.219Z,6.00
2019-03-24T21:37:04.902Z,6.00
2019-03-24T21:39:34.822Z,5.90
2019-03-24T21:42:04.674Z,5.90
2019-03-24T21:44:34.667Z,5.90
2019-03-24T21:47:04.519Z,5.90
2019-03-24T21:49:40.260Z,5.90
2019-03-24T21:52:19.146Z,5.80
2019-03-24T21:54:49.034Z,5.80
2019-03-24T21:57:24.746Z,5.70
2019-03-24T21:59:58.739Z,5.80
2019-03-24T22:02:30.646Z,5.70
2019-03-24T22:05:00.645Z,5.70
2019-03-24T22:07:30.555Z,5.70
2019-03-24T22:10:02.549Z,5.70
2019-03-24T22:12:38.507Z,5.70
2019-03-24T22:15:09.126Z,5.70
2019-03-24T22:17:42.512Z,5.70
2019-03-24T22:20:12.513Z,5.70
2019-03-24T22:22:53.354Z,5.70
2019-03-24T22:25:23.297Z,5.60
2019-03-24T22:27:53.140Z,5.60
2019-03-24T22:30:23.174Z,5.60
2019-03-24T22:32:59.629Z,5.50
2019-03-24T22:35:29.553Z,5.50
2019-03-24T22:37:59.349Z,5.50
2019-03-24T22:40:33.437Z,5.40
2019-03-24T22:43:03.318Z,5.40
2019-03-24T22:45:33.240Z,5.40
2019-03-24T22:48:03.169Z,5.40
2019-03-24T22:50:33.069Z,5.40
2019-03-24T22:53:02.947Z,5.30
2019-03-24T22:55:39.097Z,5.40
2019-03-24T22:58:08.907Z,5.30
2019-03-24T23:00:56.879Z,5.30
2019-03-24T23:03:29.747Z,5.30
2019-03-24T23:05:59.581Z,5.30
2019-03-24T23:08:45.370Z,5.30
2019-03-24T23:11:15.503Z,5.30
2019-03-24T23:13:45.348Z,5.30
2019-03-24T23:16:22.315Z,5.20
2019-03-24T23:18:54.146Z,5.20
2019-03-24T23:21:24.081Z,5.20
2019-03-24T23:23:56.260Z,5.20
2019-03-24T23:26:29.203Z,5.30
2019-03-24T23:28:59.097Z,5.30
2019-03-24T23:31:31.161Z,5.30
2019-03-24T23:34:01.037Z,5.30
2019-03-24T23:36:30.916Z,5.30
2019-03-24T23:39:05.746Z,5.30
2019-03-24T23:41:43.022Z,5.30
2019-03-24T23:44:12.945Z,5.30
2019-03-24T23:46:43.742Z,5.30
2019-03-24T23:49:13.670Z,5.30
2019-03-24T23:51:43.558Z,5.30
2019-03-24T23:54:13.438Z,5.30
2019-03-24T23:56:43.486Z,5.30
2019-03-24T23:59:13.275Z,5.30
